sensor_id;sensor_type;location;lat;lon;timestamp;temperature;humidity
67279;DHT22;54193;53.746;10.058;2023-04-24T00:02:27;11.82;86.52
67279;DHT22;54193;53.746;10.058;2023-04-24T00:05:13;11.79;86.88
67279;DHT22;54193;53.746;10.058;2023-04-24T00:07:59;11.73;87.60
67279;DHT22;54193;53.746;10.058;2023-04-24T00:10:46;11.67;87.92
67279;DHT22;54193;53.746;10.058;2023-04-24T00:13:31;11.61;88.36
67279;DHT22;54193;53.746;10.058;2023-04-24T00:16:17;11.61;89.01
67279;DHT22;54193;53.746;10.058;2023-04-24T00:19:03;11.54;89.03
67279;DHT22;54193;53.746;10.058;2023-04-24T00:21:48;11.51;89.26
67279;DHT22;54193;53.746;10.058;2023-04-24T00:24:37;11.48;89.60
67279;DHT22;54193;53.746;10.058;2023-04-24T00:27:22;11.44;89.62
67279;DHT22;54193;53.746;10.058;2023-04-24T00:30:08;11.38;89.64
67279;DHT22;54193;53.746;10.058;2023-04-24T00:32:54;11.33;89.39
67279;DHT22;54193;53.746;10.058;2023-04-24T00:35:40;11.29;89.69
67279;DHT22;54193;53.746;10.058;2023-04-24T00:38:26;11.24;89.86
67279;DHT22;54193;53.746;10.058;2023-04-24T00:41:11;11.24;89.78
67279;DHT22;54193;53.746;10.058;2023-04-24T00:43:57;11.27;89.96
67279;DHT22;54193;53.746;10.058;2023-04-24T00:46:43;11.27;89.80
67279;DHT22;54193;53.746;10.058;2023-04-24T00:49:29;11.27;89.79
67279;DHT22;54193;53.746;10.058;2023-04-24T00:52:14;11.23;89.95
67279;DHT22;54193;53.746;10.058;2023-04-24T00:55:03;11.23;90.12
67279;DHT22;54193;53.746;10.058;2023-04-24T00:57:49;11.20;90.05
67279;DHT22;54193;53.746;10.058;2023-04-24T01:00:34;11.24;90.09
67279;DHT22;54193;53.746;10.058;2023-04-24T01:03:25;11.26;90.01
67279;DHT22;54193;53.746;10.058;2023-04-24T01:06:12;11.24;89.73
67279;DHT22;54193;53.746;10.058;2023-04-24T01:08:58;11.23;89.83
67279;DHT22;54193;53.746;10.058;2023-04-24T01:11:44;11.19;90.06
67279;DHT22;54193;53.746;10.058;2023-04-24T01:14:30;11.12;90.06
67279;DHT22;54193;53.746;10.058;2023-04-24T01:17:16;11.10;89.98
67279;DHT22;54193;53.746;10.058;2023-04-24T01:20:02;11.13;90.10
67279;DHT22;54193;53.746;10.058;2023-04-24T01:22:51;11.05;90.17
67279;DHT22;54193;53.746;10.058;2023-04-24T01:25:38;11.00;90.20
67279;DHT22;54193;53.746;10.058;2023-04-24T01:28:24;10.95;90.13
67279;DHT22;54193;53.746;10.058;2023-04-24T01:31:10;10.91;90.42
67279;DHT22;54193;53.746;10.058;2023-04-24T01:33:56;10.82;90.63
67279;DHT22;54193;53.746;10.058;2023-04-24T01:36:42;10.89;90.76
67279;DHT22;54193;53.746;10.058;2023-04-24T01:39:28;10.93;90.02
67279;DHT22;54193;53.746;10.058;2023-04-24T01:42:14;10.85;90.21
67279;DHT22;54193;53.746;10.058;2023-04-24T01:45:02;10.76;90.33
67279;DHT22;54193;53.746;10.058;2023-04-24T01:47:49;10.75;90.55
67279;DHT22;54193;53.746;10.058;2023-04-24T01:50:35;10.79;90.50
67279;DHT22;54193;53.746;10.058;2023-04-24T01:53:21;10.88;90.17
67279;DHT22;54193;53.746;10.058;2023-04-24T01:56:06;10.93;90.19
67279;DHT22;54193;53.746;10.058;2023-04-24T01:58:53;10.99;90.02
67279;DHT22;54193;53.746;10.058;2023-04-24T02:01:40;11.03;89.64
67279;DHT22;54193;53.746;10.058;2023-04-24T02:04:25;11.08;89.44
67279;DHT22;54193;53.746;10.058;2023-04-24T02:07:11;10.99;89.37
67279;DHT22;54193;53.746;10.058;2023-04-24T02:09:56;10.93;89.27
67279;DHT22;54193;53.746;10.058;2023-04-24T02:12:42;10.86;89.29
67279;DHT22;54193;53.746;10.058;2023-04-24T02:15:28;10.69;89.78
67279;DHT22;54193;53.746;10.058;2023-04-24T02:18:13;10.62;89.94
67279;DHT22;54193;53.746;10.058;2023-04-24T02:20:59;10.54;90.15
67279;DHT22;54193;53.746;10.058;2023-04-24T02:23:45;10.62;89.52
67279;DHT22;54193;53.746;10.058;2023-04-24T02:26:30;10.55;89.63
67279;DHT22;54193;53.746;10.058;2023-04-24T02:29:17;10.58;89.39
67279;DHT22;54193;53.746;10.058;2023-04-24T02:32:03;10.57;89.07
67279;DHT22;54193;53.746;10.058;2023-04-24T02:34:48;10.54;89.19
67279;DHT22;54193;53.746;10.058;2023-04-24T02:37:34;10.51;89.10
67279;DHT22;54193;53.746;10.058;2023-04-24T02:40:20;10.51;88.88
67279;DHT22;54193;53.746;10.058;2023-04-24T02:43:05;10.48;88.55
67279;DHT22;54193;53.746;10.058;2023-04-24T02:45:51;10.55;87.96
67279;DHT22;54193;53.746;10.058;2023-04-24T02:48:37;10.55;87.50
67279;DHT22;54193;53.746;10.058;2023-04-24T02:51:22;10.43;87.96
67279;DHT22;54193;53.746;10.058;2023-04-24T02:54:08;10.36;87.64
67279;DHT22;54193;53.746;10.058;2023-04-24T02:56:55;10.38;87.75
67279;DHT22;54193;53.746;10.058;2023-04-24T02:59:42;10.36;87.35
67279;DHT22;54193;53.746;10.058;2023-04-24T03:02:27;10.30;87.36
67279;DHT22;54193;53.746;10.058;2023-04-24T03:05:13;10.23;87.56
67279;DHT22;54193;53.746;10.058;2023-04-24T03:07:59;10.09;87.83
67279;DHT22;54193;53.746;10.058;2023-04-24T03:10:44;9.98;88.23
67279;DHT22;54193;53.746;10.058;2023-04-24T03:13:30;9.92;88.32
67279;DHT22;54193;53.746;10.058;2023-04-24T03:16:16;9.92;88.75
67279;DHT22;54193;53.746;10.058;2023-04-24T03:19:01;9.96;89.00
67279;DHT22;54193;53.746;10.058;2023-04-24T03:21:48;9.98;89.28
67279;DHT22;54193;53.746;10.058;2023-04-24T03:24:34;9.92;89.49
67279;DHT22;54193;53.746;10.058;2023-04-24T03:27:20;9.88;89.69
67279;DHT22;54193;53.746;10.058;2023-04-24T03:30:08;9.88;89.85
67279;DHT22;54193;53.746;10.058;2023-04-24T03:32:54;9.78;89.81
67279;DHT22;54193;53.746;10.058;2023-04-24T03:35:40;9.75;90.22
67279;DHT22;54193;53.746;10.058;2023-04-24T03:38:26;9.79;90.19
67279;DHT22;54193;53.746;10.058;2023-04-24T03:41:12;9.71;90.24
67279;DHT22;54193;53.746;10.058;2023-04-24T03:43:57;9.78;90.39
67279;DHT22;54193;53.746;10.058;2023-04-24T03:46:43;9.81;90.07
67279;DHT22;54193;53.746;10.058;2023-04-24T03:49:29;9.85;89.98
67279;DHT22;54193;53.746;10.058;2023-04-24T03:52:14;9.85;89.74
67279;DHT22;54193;53.746;10.058;2023-04-24T03:55:00;9.77;89.71
67279;DHT22;54193;53.746;10.058;2023-04-24T03:57:46;9.85;89.37
67279;DHT22;54193;53.746;10.058;2023-04-24T04:00:31;9.77;89.54
67279;DHT22;54193;53.746;10.058;2023-04-24T04:03:17;9.71;89.57
67279;DHT22;54193;53.746;10.058;2023-04-24T04:06:03;9.62;89.47
67279;DHT22;54193;53.746;10.058;2023-04-24T04:08:48;9.61;89.53
67279;DHT22;54193;53.746;10.058;2023-04-24T04:11:34;9.47;89.76
67279;DHT22;54193;53.746;10.058;2023-04-24T04:14:21;9.61;89.50
67279;DHT22;54193;53.746;10.058;2023-04-24T04:17:08;9.58;89.17
67279;DHT22;54193;53.746;10.058;2023-04-24T04:19:54;9.65;88.47
67279;DHT22;54193;53.746;10.058;2023-04-24T04:22:40;9.72;87.60
67279;DHT22;54193;53.746;10.058;2023-04-24T04:25:26;9.71;87.67
67279;DHT22;54193;53.746;10.058;2023-04-24T04:28:12;9.62;87.27
67279;DHT22;54193;53.746;10.058;2023-04-24T04:30:57;9.71;87.00
67279;DHT22;54193;53.746;10.058;2023-04-24T04:33:43;9.69;86.88
67279;DHT22;54193;53.746;10.058;2023-04-24T04:36:29;9.69;86.63
67279;DHT22;54193;53.746;10.058;2023-04-24T04:39:15;9.67;86.20
67279;DHT22;54193;53.746;10.058;2023-04-24T04:42:02;9.68;85.98
67279;DHT22;54193;53.746;10.058;2023-04-24T04:44:47;9.82;85.18
67279;DHT22;54193;53.746;10.058;2023-04-24T04:47:33;9.90;84.84
67279;DHT22;54193;53.746;10.058;2023-04-24T04:50:19;9.93;84.17
67279;DHT22;54193;53.746;10.058;2023-04-24T04:53:04;9.93;84.38
67279;DHT22;54193;53.746;10.058;2023-04-24T04:55:51;9.93;84.29
67279;DHT22;54193;53.746;10.058;2023-04-24T04:58:36;10.05;83.41
67279;DHT22;54193;53.746;10.058;2023-04-24T05:01:22;10.34;82.96
67279;DHT22;54193;53.746;10.058;2023-04-24T05:04:08;10.62;81.79
67279;DHT22;54193;53.746;10.058;2023-04-24T05:06:54;10.78;81.63
67279;DHT22;54193;53.746;10.058;2023-04-24T05:09:39;10.92;80.94
67279;DHT22;54193;53.746;10.058;2023-04-24T05:12:25;11.00;81.32
67279;DHT22;54193;53.746;10.058;2023-04-24T05:15:11;11.10;80.65
67279;DHT22;54193;53.746;10.058;2023-04-24T05:17:57;11.22;79.95
67279;DHT22;54193;53.746;10.058;2023-04-24T05:20:42;11.27;80.60
67279;DHT22;54193;53.746;10.058;2023-04-24T05:23:29;11.23;79.96
67279;DHT22;54193;53.746;10.058;2023-04-24T05:26:14;11.20;79.17
67279;DHT22;54193;53.746;10.058;2023-04-24T05:29:01;11.13;79.96
67279;DHT22;54193;53.746;10.058;2023-04-24T05:31:47;11.15;80.34
67279;DHT22;54193;53.746;10.058;2023-04-24T05:34:33;11.29;78.81
67279;DHT22;54193;53.746;10.058;2023-04-24T05:37:18;11.46;77.81
67279;DHT22;54193;53.746;10.058;2023-04-24T05:40:05;11.64;78.10
67279;DHT22;54193;53.746;10.058;2023-04-24T05:42:51;11.81;77.31
67279;DHT22;54193;53.746;10.058;2023-04-24T05:45:36;11.84;77.14
67279;DHT22;54193;53.746;10.058;2023-04-24T05:48:22;11.96;77.64
67279;DHT22;54193;53.746;10.058;2023-04-24T05:51:09;12.20;76.54
67279;DHT22;54193;53.746;10.058;2023-04-24T05:53:54;12.22;76.43
67279;DHT22;54193;53.746;10.058;2023-04-24T05:56:40;12.08;76.30
67279;DHT22;54193;53.746;10.058;2023-04-24T05:59:26;12.01;77.61
67279;DHT22;54193;53.746;10.058;2023-04-24T06:02:11;11.94;76.59
67279;DHT22;54193;53.746;10.058;2023-04-24T06:04:58;11.95;75.70
67279;DHT22;54193;53.746;10.058;2023-04-24T06:07:45;11.79;76.46
67279;DHT22;54193;53.746;10.058;2023-04-24T06:10:31;11.85;76.30
67279;DHT22;54193;53.746;10.058;2023-04-24T06:13:16;11.92;76.64
67279;DHT22;54193;53.746;10.058;2023-04-24T06:16:02;11.94;76.26
67279;DHT22;54193;53.746;10.058;2023-04-24T06:18:48;11.99;74.98
67279;DHT22;54193;53.746;10.058;2023-04-24T06:21:33;12.20;75.35
67279;DHT22;54193;53.746;10.058;2023-04-24T06:24:19;12.20;75.71
67279;DHT22;54193;53.746;10.058;2023-04-24T06:27:05;12.28;73.68
67279;DHT22;54193;53.746;10.058;2023-04-24T06:29:51;12.51;74.37
67279;DHT22;54193;53.746;10.058;2023-04-24T06:32:39;12.71;73.60
67279;DHT22;54193;53.746;10.058;2023-04-24T06:35:25;12.77;73.01
67279;DHT22;54193;53.746;10.058;2023-04-24T06:38:11;12.96;72.99
67279;DHT22;54193;53.746;10.058;2023-04-24T06:40:57;12.83;72.87
67279;DHT22;54193;53.746;10.058;2023-04-24T06:43:42;12.84;73.12
67279;DHT22;54193;53.746;10.058;2023-04-24T06:46:28;13.01;72.79
67279;DHT22;54193;53.746;10.058;2023-04-24T06:49:14;12.94;71.99
67279;DHT22;54193;53.746;10.058;2023-04-24T06:52:01;12.92;72.21
67279;DHT22;54193;53.746;10.058;2023-04-24T06:54:47;12.99;72.28
67279;DHT22;54193;53.746;10.058;2023-04-24T06:57:33;13.44;70.71
67279;DHT22;54193;53.746;10.058;2023-04-24T07:00:18;13.95;68.22
67279;DHT22;54193;53.746;10.058;2023-04-24T07:03:04;14.47;67.53
67279;DHT22;54193;53.746;10.058;2023-04-24T07:05:54;14.37;66.84
67279;DHT22;54193;53.746;10.058;2023-04-24T07:08:40;13.94;67.32
67279;DHT22;54193;53.746;10.058;2023-04-24T07:11:27;14.04;68.77
67279;DHT22;54193;53.746;10.058;2023-04-24T07:14:14;14.28;67.08
67279;DHT22;54193;53.746;10.058;2023-04-24T07:17:02;14.01;66.90
67279;DHT22;54193;53.746;10.058;2023-04-24T07:19:50;14.29;67.07
67279;DHT22;54193;53.746;10.058;2023-04-24T07:22:37;14.01;68.24
67279;DHT22;54193;53.746;10.058;2023-04-24T07:25:23;13.87;67.25
67279;DHT22;54193;53.746;10.058;2023-04-24T07:28:09;13.82;67.69
67279;DHT22;54193;53.746;10.058;2023-04-24T07:30:55;13.67;68.92
67279;DHT22;54193;53.746;10.058;2023-04-24T07:33:40;13.38;68.95
67279;DHT22;54193;53.746;10.058;2023-04-24T07:36:26;13.12;69.47
67279;DHT22;54193;53.746;10.058;2023-04-24T07:39:13;13.73;68.77
67279;DHT22;54193;53.746;10.058;2023-04-24T07:41:59;14.32;68.26
67279;DHT22;54193;53.746;10.058;2023-04-24T07:44:44;14.70;65.29
67279;DHT22;54193;53.746;10.058;2023-04-24T07:47:32;15.22;64.77
67279;DHT22;54193;53.746;10.058;2023-04-24T07:50:18;15.28;65.91
67279;DHT22;54193;53.746;10.058;2023-04-24T07:53:04;16.18;62.38
67279;DHT22;54193;53.746;10.058;2023-04-24T07:55:50;15.14;63.35
67279;DHT22;54193;53.746;10.058;2023-04-24T07:58:35;15.00;65.11
67279;DHT22;54193;53.746;10.058;2023-04-24T08:01:21;15.17;65.30
67279;DHT22;54193;53.746;10.058;2023-04-24T08:04:07;14.53;66.06
67279;DHT22;54193;53.746;10.058;2023-04-24T08:06:52;14.02;68.58
67279;DHT22;54193;53.746;10.058;2023-04-24T08:09:38;13.78;68.37
67279;DHT22;54193;53.746;10.058;2023-04-24T08:12:24;13.47;69.55
67279;DHT22;54193;53.746;10.058;2023-04-24T08:15:11;13.60;69.72
67279;DHT22;54193;53.746;10.058;2023-04-24T08:17:57;13.27;69.30
67279;DHT22;54193;53.746;10.058;2023-04-24T08:20:42;13.53;70.30
67279;DHT22;54193;53.746;10.058;2023-04-24T08:23:28;13.59;69.45
67279;DHT22;54193;53.746;10.058;2023-04-24T08:26:15;13.59;69.55
67279;DHT22;54193;53.746;10.058;2023-04-24T08:29:01;13.71;67.88
67279;DHT22;54193;53.746;10.058;2023-04-24T08:31:47;13.87;68.26
67279;DHT22;54193;53.746;10.058;2023-04-24T08:34:33;14.11;67.44
67279;DHT22;54193;53.746;10.058;2023-04-24T08:37:18;14.11;66.94
67279;DHT22;54193;53.746;10.058;2023-04-24T08:40:11;13.92;66.67
67279;DHT22;54193;53.746;10.058;2023-04-24T08:42:59;13.47;68.12
67279;DHT22;54193;53.746;10.058;2023-04-24T08:45:44;13.32;69.29
67279;DHT22;54193;53.746;10.058;2023-04-24T08:48:31;13.16;70.04
67279;DHT22;54193;53.746;10.058;2023-04-24T08:51:17;13.33;68.73
67279;DHT22;54193;53.746;10.058;2023-04-24T08:54:04;13.49;67.31
67279;DHT22;54193;53.746;10.058;2023-04-24T08:56:50;13.73;68.85
67279;DHT22;54193;53.746;10.058;2023-04-24T08:59:37;13.64;69.40
67279;DHT22;54193;53.746;10.058;2023-04-24T09:02:23;13.42;69.31
67279;DHT22;54193;53.746;10.058;2023-04-24T09:05:10;13.14;69.80
67279;DHT22;54193;53.746;10.058;2023-04-24T09:07:56;13.43;69.87
67279;DHT22;54193;53.746;10.058;2023-04-24T09:10:42;13.69;68.35
67279;DHT22;54193;53.746;10.058;2023-04-24T09:13:28;13.54;68.89
67279;DHT22;54193;53.746;10.058;2023-04-24T09:16:14;13.54;68.90
67279;DHT22;54193;53.746;10.058;2023-04-24T09:19:00;13.74;68.49
67279;DHT22;54193;53.746;10.058;2023-04-24T09:21:46;13.66;69.15
67279;DHT22;54193;53.746;10.058;2023-04-24T09:24:33;13.60;68.85
67279;DHT22;54193;53.746;10.058;2023-04-24T09:27:19;13.44;69.86
67279;DHT22;54193;53.746;10.058;2023-04-24T09:30:05;13.52;69.31
67279;DHT22;54193;53.746;10.058;2023-04-24T09:33:09;13.85;69.54
67279;DHT22;54193;53.746;10.058;2023-04-24T09:35:55;13.74;67.72
67279;DHT22;54193;53.746;10.058;2023-04-24T09:38:41;13.71;68.59
67279;DHT22;54193;53.746;10.058;2023-04-24T09:41:27;13.61;68.84
67279;DHT22;54193;53.746;10.058;2023-04-24T09:44:16;13.63;68.80
67279;DHT22;54193;53.746;10.058;2023-04-24T09:47:02;13.56;69.45
67279;DHT22;54193;53.746;10.058;2023-04-24T09:49:48;13.23;70.04
67279;DHT22;54193;53.746;10.058;2023-04-24T09:52:34;13.15;70.43
67279;DHT22;54193;53.746;10.058;2023-04-24T09:55:20;13.42;69.84
67279;DHT22;54193;53.746;10.058;2023-04-24T09:58:07;13.44;68.99
67279;DHT22;54193;53.746;10.058;2023-04-24T10:00:55;13.82;69.03
67279;DHT22;54193;53.746;10.058;2023-04-24T10:03:42;14.25;67.41
67279;DHT22;54193;53.746;10.058;2023-04-24T10:06:34;14.45;66.81
67279;DHT22;54193;53.746;10.058;2023-04-24T10:09:25;14.83;65.92
67279;DHT22;54193;53.746;10.058;2023-04-24T10:12:12;14.74;65.10
67279;DHT22;54193;53.746;10.058;2023-04-24T10:14:59;14.46;66.99
67279;DHT22;54193;53.746;10.058;2023-04-24T10:17:48;14.30;67.03
67279;DHT22;54193;53.746;10.058;2023-04-24T10:20:39;14.04;68.57
67279;DHT22;54193;53.746;10.058;2023-04-24T10:23:25;13.56;68.74
67279;DHT22;54193;53.746;10.058;2023-04-24T10:26:13;13.46;69.61
67279;DHT22;54193;53.746;10.058;2023-04-24T10:29:04;13.40;69.99
67279;DHT22;54193;53.746;10.058;2023-04-24T10:31:51;13.25;69.37
67279;DHT22;54193;53.746;10.058;2023-04-24T10:34:37;13.16;70.13
67279;DHT22;54193;53.746;10.058;2023-04-24T10:37:23;13.36;70.30
67279;DHT22;54193;53.746;10.058;2023-04-24T10:40:10;13.43;69.92
67279;DHT22;54193;53.746;10.058;2023-04-24T10:42:56;13.67;68.85
67279;DHT22;54193;53.746;10.058;2023-04-24T10:46:00;13.77;68.93
67279;DHT22;54193;53.746;10.058;2023-04-24T10:48:54;13.80;68.26
67279;DHT22;54193;53.746;10.058;2023-04-24T10:51:50;14.00;67.71
67279;DHT22;54193;53.746;10.058;2023-04-24T10:54:45;14.21;66.61
67279;DHT22;54193;53.746;10.058;2023-04-24T10:57:31;14.07;66.16
67279;DHT22;54193;53.746;10.058;2023-04-24T11:00:21;13.91;66.10
67279;DHT22;54193;53.746;10.058;2023-04-24T11:03:22;13.88;66.24
67279;DHT22;54193;53.746;10.058;2023-04-24T11:06:09;14.01;66.24
67279;DHT22;54193;53.746;10.058;2023-04-24T11:09:02;14.12;66.33
67279;DHT22;54193;53.746;10.058;2023-04-24T11:11:49;14.36;64.65
67279;DHT22;54193;53.746;10.058;2023-04-24T11:17:43;14.21;65.91
67279;DHT22;54193;53.746;10.058;2023-04-24T11:20:28;14.04;66.31
67279;DHT22;54193;53.746;10.058;2023-04-24T11:23:15;14.21;66.32
67279;DHT22;54193;53.746;10.058;2023-04-24T11:26:18;14.21;65.91
67279;DHT22;54193;53.746;10.058;2023-04-24T11:29:07;14.09;65.87
67279;DHT22;54193;53.746;10.058;2023-04-24T11:31:53;14.18;65.38
67279;DHT22;54193;53.746;10.058;2023-04-24T11:34:39;14.37;64.88
67279;DHT22;54193;53.746;10.058;2023-04-24T11:37:33;14.63;65.18
67279;DHT22;54193;53.746;10.058;2023-04-24T11:40:21;14.80;64.87
67279;DHT22;54193;53.746;10.058;2023-04-24T11:43:11;14.81;64.28
67279;DHT22;54193;53.746;10.058;2023-04-24T11:45:59;14.66;64.23
67279;DHT22;54193;53.746;10.058;2023-04-24T11:48:45;15.05;64.14
67279;DHT22;54193;53.746;10.058;2023-04-24T11:51:31;15.21;63.67
67279;DHT22;54193;53.746;10.058;2023-04-24T11:54:16;15.01;63.11
67279;DHT22;54193;53.746;10.058;2023-04-24T11:57:06;14.84;62.84
67279;DHT22;54193;53.746;10.058;2023-04-24T11:59:52;14.64;62.45
67279;DHT22;54193;53.746;10.058;2023-04-24T12:02:37;14.62;62.34
67279;DHT22;54193;53.746;10.058;2023-04-24T12:05:27;14.77;63.04
67279;DHT22;54193;53.746;10.058;2023-04-24T12:08:36;14.83;63.32
67279;DHT22;54193;53.746;10.058;2023-04-24T12:11:22;14.46;63.33
67279;DHT22;54193;53.746;10.058;2023-04-24T12:14:11;14.29;64.51
67279;DHT22;54193;53.746;10.058;2023-04-24T12:16:57;14.47;63.79
67279;DHT22;54193;53.746;10.058;2023-04-24T12:19:47;14.53;63.06
67279;DHT22;54193;53.746;10.058;2023-04-24T12:22:47;14.40;63.09
67279;DHT22;54193;53.746;10.058;2023-04-24T12:25:32;14.28;63.80
67279;DHT22;54193;53.746;10.058;2023-04-24T12:28:18;13.92;64.17
67279;DHT22;54193;53.746;10.058;2023-04-24T12:31:04;13.87;65.06
67279;DHT22;54193;53.746;10.058;2023-04-24T12:33:51;14.04;66.02
67279;DHT22;54193;53.746;10.058;2023-04-24T12:36:36;14.25;65.62
67279;DHT22;54193;53.746;10.058;2023-04-24T12:39:22;14.50;64.66
67279;DHT22;54193;53.746;10.058;2023-04-24T12:42:11;14.35;63.11
67279;DHT22;54193;53.746;10.058;2023-04-24T12:44:58;14.02;62.87
67279;DHT22;54193;53.746;10.058;2023-04-24T12:47:45;13.88;63.76
67279;DHT22;54193;53.746;10.058;2023-04-24T12:50:31;14.01;64.41
67279;DHT22;54193;53.746;10.058;2023-04-24T12:53:17;13.88;64.70
67279;DHT22;54193;53.746;10.058;2023-04-24T12:56:03;13.70;65.43
67279;DHT22;54193;53.746;10.058;2023-04-24T12:58:48;13.43;65.70
67279;DHT22;54193;53.746;10.058;2023-04-24T13:01:34;13.19;66.51
67279;DHT22;54193;53.746;10.058;2023-04-24T13:04:20;13.23;67.37
67279;DHT22;54193;53.746;10.058;2023-04-24T13:07:06;13.26;66.50
67279;DHT22;54193;53.746;10.058;2023-04-24T13:09:52;13.26;67.33
67279;DHT22;54193;53.746;10.058;2023-04-24T13:12:38;12.96;67.97
67279;DHT22;54193;53.746;10.058;2023-04-24T13:15:24;13.15;68.24
67279;DHT22;54193;53.746;10.058;2023-04-24T13:18:10;13.25;67.63
67279;DHT22;54193;53.746;10.058;2023-04-24T13:20:55;13.06;67.30
67279;DHT22;54193;53.746;10.058;2023-04-24T13:23:41;13.23;67.54
67279;DHT22;54193;53.746;10.058;2023-04-24T13:26:27;13.47;67.58
67279;DHT22;54193;53.746;10.058;2023-04-24T13:29:13;13.38;67.40
67279;DHT22;54193;53.746;10.058;2023-04-24T13:31:59;13.11;67.40
67279;DHT22;54193;53.746;10.058;2023-04-24T13:34:45;13.47;67.92
67279;DHT22;54193;53.746;10.058;2023-04-24T13:37:31;13.43;67.26
67279;DHT22;54193;53.746;10.058;2023-04-24T13:40:17;13.36;67.59
67279;DHT22;54193;53.746;10.058;2023-04-24T13:43:02;13.22;66.73
67279;DHT22;54193;53.746;10.058;2023-04-24T13:45:48;13.11;68.42
67279;DHT22;54193;53.746;10.058;2023-04-24T13:48:35;13.04;68.10
67279;DHT22;54193;53.746;10.058;2023-04-24T13:51:20;13.15;68.78
67279;DHT22;54193;53.746;10.058;2023-04-24T13:54:06;12.99;68.63
67279;DHT22;54193;53.746;10.058;2023-04-24T13:56:52;12.95;70.78
67279;DHT22;54193;53.746;10.058;2023-04-24T13:59:38;12.87;71.15
67279;DHT22;54193;53.746;10.058;2023-04-24T14:02:24;12.61;71.40
67279;DHT22;54193;53.746;10.058;2023-04-24T14:05:09;12.46;72.14
67279;DHT22;54193;53.746;10.058;2023-04-24T14:07:56;12.53;72.03
67279;DHT22;54193;53.746;10.058;2023-04-24T14:10:42;12.57;71.98
67279;DHT22;54193;53.746;10.058;2023-04-24T14:13:28;12.65;72.03
67279;DHT22;54193;53.746;10.058;2023-04-24T14:16:14;12.51;71.78
67279;DHT22;54193;53.746;10.058;2023-04-24T14:19:00;12.58;72.28
67279;DHT22;54193;53.746;10.058;2023-04-24T14:21:45;12.54;72.26
67279;DHT22;54193;53.746;10.058;2023-04-24T14:24:31;12.68;73.11
67279;DHT22;54193;53.746;10.058;2023-04-24T14:27:17;12.78;71.42
67279;DHT22;54193;53.746;10.058;2023-04-24T14:30:04;12.91;71.81
67279;DHT22;54193;53.746;10.058;2023-04-24T14:32:50;12.77;72.30
67279;DHT22;54193;53.746;10.058;2023-04-24T14:35:36;12.77;71.08
67279;DHT22;54193;53.746;10.058;2023-04-24T14:38:21;12.54;71.51
67279;DHT22;54193;53.746;10.058;2023-04-24T14:41:07;12.41;72.41
67279;DHT22;54193;53.746;10.058;2023-04-24T14:43:55;11.94;75.68
67279;DHT22;54193;53.746;10.058;2023-04-24T14:46:41;11.78;79.49
67279;DHT22;54193;53.746;10.058;2023-04-24T14:49:27;11.36;82.94
67279;DHT22;54193;53.746;10.058;2023-04-24T14:52:13;11.05;84.34
67279;DHT22;54193;53.746;10.058;2023-04-24T14:54:58;10.91;85.53
67279;DHT22;54193;53.746;10.058;2023-04-24T14:57:44;10.55;84.39
67279;DHT22;54193;53.746;10.058;2023-04-24T15:00:30;10.30;85.14
67279;DHT22;54193;53.746;10.058;2023-04-24T15:03:15;10.23;86.19
67279;DHT22;54193;53.746;10.058;2023-04-24T15:06:02;10.32;85.88
67279;DHT22;54193;53.746;10.058;2023-04-24T15:08:48;10.43;85.87
67279;DHT22;54193;53.746;10.058;2023-04-24T15:11:34;10.23;84.81
67279;DHT22;54193;53.746;10.058;2023-04-24T15:14:20;10.13;85.71
67279;DHT22;54193;53.746;10.058;2023-04-24T15:17:05;10.16;86.08
67279;DHT22;54193;53.746;10.058;2023-04-24T15:19:51;10.13;86.16
67279;DHT22;54193;53.746;10.058;2023-04-24T15:22:37;10.18;86.78
67279;DHT22;54193;53.746;10.058;2023-04-24T15:25:22;10.17;86.38
67279;DHT22;54193;53.746;10.058;2023-04-24T15:28:13;10.13;86.10
67279;DHT22;54193;53.746;10.058;2023-04-24T15:31:01;9.96;86.15
67279;DHT22;54193;53.746;10.058;2023-04-24T15:33:46;9.95;86.29
67279;DHT22;54193;53.746;10.058;2023-04-24T15:36:32;9.88;86.13
67279;DHT22;54193;53.746;10.058;2023-04-24T15:39:22;9.92;86.80
67279;DHT22;54193;53.746;10.058;2023-04-24T15:42:08;9.83;86.90
67279;DHT22;54193;53.746;10.058;2023-04-24T15:44:53;9.74;86.99
67279;DHT22;54193;53.746;10.058;2023-04-24T15:47:39;9.62;87.61
67279;DHT22;54193;53.746;10.058;2023-04-24T15:50:25;9.59;87.95
67279;DHT22;54193;53.746;10.058;2023-04-24T15:53:11;9.44;87.72
67279;DHT22;54193;53.746;10.058;2023-04-24T15:55:57;9.27;88.11
67279;DHT22;54193;53.746;10.058;2023-04-24T15:58:43;9.24;88.15
67279;DHT22;54193;53.746;10.058;2023-04-24T16:01:29;9.28;88.63
67279;DHT22;54193;53.746;10.058;2023-04-24T16:04:15;9.07;87.85
67279;DHT22;54193;53.746;10.058;2023-04-24T16:07:01;9.04;88.10
67279;DHT22;54193;53.746;10.058;2023-04-24T16:09:47;9.06;88.27
67279;DHT22;54193;53.746;10.058;2023-04-24T16:12:32;9.06;88.06
67279;DHT22;54193;53.746;10.058;2023-04-24T16:15:19;9.02;87.80
67279;DHT22;54193;53.746;10.058;2023-04-24T16:18:06;8.90;88.14
67279;DHT22;54193;53.746;10.058;2023-04-24T16:20:51;8.68;87.92
67279;DHT22;54193;53.746;10.058;2023-04-24T16:23:37;8.47;87.70
67279;DHT22;54193;53.746;10.058;2023-04-24T16:26:22;8.33;87.59
67279;DHT22;54193;53.746;10.058;2023-04-24T16:29:08;8.31;88.27
67279;DHT22;54193;53.746;10.058;2023-04-24T16:31:54;8.28;88.01
67279;DHT22;54193;53.746;10.058;2023-04-24T16:34:39;8.10;88.25
67279;DHT22;54193;53.746;10.058;2023-04-24T16:37:25;8.02;87.74
67279;DHT22;54193;53.746;10.058;2023-04-24T16:40:11;7.96;87.80
67279;DHT22;54193;53.746;10.058;2023-04-24T16:42:57;7.94;88.70
67279;DHT22;54193;53.746;10.058;2023-04-24T16:45:42;7.90;88.73
67279;DHT22;54193;53.746;10.058;2023-04-24T16:48:28;7.90;89.08
67279;DHT22;54193;53.746;10.058;2023-04-24T16:51:14;7.86;89.08
67279;DHT22;54193;53.746;10.058;2023-04-24T16:54:00;7.79;89.30
67279;DHT22;54193;53.746;10.058;2023-04-24T16:56:45;7.71;88.94
67279;DHT22;54193;53.746;10.058;2023-04-24T16:59:31;7.69;89.30
67279;DHT22;54193;53.746;10.058;2023-04-24T17:02:19;7.64;89.13
67279;DHT22;54193;53.746;10.058;2023-04-24T17:05:05;7.65;89.76
67279;DHT22;54193;53.746;10.058;2023-04-24T17:07:51;7.50;89.16
67279;DHT22;54193;53.746;10.058;2023-04-24T17:10:37;7.65;90.22
67279;DHT22;54193;53.746;10.058;2023-04-24T17:13:23;7.56;89.86
67279;DHT22;54193;53.746;10.058;2023-04-24T17:16:09;7.58;90.11
67279;DHT22;54193;53.746;10.058;2023-04-24T17:18:55;7.58;90.28
67279;DHT22;54193;53.746;10.058;2023-04-24T17:21:40;7.59;90.41
67279;DHT22;54193;53.746;10.058;2023-04-24T17:24:26;7.58;90.50